createdAt,value
2018-03-07T00:00:35.836Z,20.75
2018-03-07T00:03:02.152Z,17.85
2018-03-07T00:05:28.428Z,21.27
2018-03-07T00:07:55.490Z,21.83
2018-03-07T00:10:21.736Z,21.10
2018-03-07T00:12:48.052Z,19.23
2018-03-07T00:15:14.360Z,17.40
2018-03-07T00:17:40.748Z,17.83
2018-03-07T00:20:07.076Z,18.25
2018-03-07T00:22:33.381Z,18.80
2018-03-07T00:24:59.677Z,20.42
2018-03-07T00:27:25.936Z,20.85
2018-03-07T00:29:52.200Z,19.52
2018-03-07T00:32:18.480Z,21.87
2018-03-07T00:34:45.520Z,25.17
2018-03-07T00:37:11.800Z,23.45
2018-03-07T00:39:38.140Z,26.40
2018-03-07T00:42:04.428Z,23.00
2018-03-07T00:44:30.726Z,24.40
2018-03-07T00:46:57.001Z,33.58
2018-03-07T00:49:23.320Z,23.02
2018-03-07T00:51:49.592Z,23.42
2018-03-07T00:54:15.933Z,21.25
2018-03-07T00:56:42.181Z,23.48
2018-03-07T00:59:08.480Z,19.60
2018-03-07T01:01:34.812Z,28.25
2018-03-07T01:04:01.080Z,24.48
2018-03-07T01:06:28.140Z,27.27
2018-03-07T01:08:55.175Z,26.08
2018-03-07T01:11:21.460Z,23.05
2018-03-07T01:13:47.745Z,20.30
2018-03-07T01:16:14.764Z,23.12
2018-03-07T01:18:41.046Z,21.48
2018-03-07T01:21:07.348Z,25.55
2018-03-07T01:23:34.339Z,23.35
2018-03-07T01:26:00.619Z,23.58
2018-03-07T01:28:26.868Z,23.85
2018-03-07T01:30:53.922Z,21.95
2018-03-07T01:33:20.191Z,21.08
2018-03-07T01:35:46.476Z,21.73
2018-03-07T01:38:13.448Z,25.65
2018-03-07T01:40:39.788Z,22.80
2018-03-07T01:43:06.089Z,25.20
2018-03-07T01:45:32.365Z,24.95
2018-03-07T01:47:58.640Z,27.08
2018-03-07T01:50:25.632Z,20.45
2018-03-07T01:52:52.656Z,27.92
2018-03-07T01:55:18.917Z,25.05
2018-03-07T01:57:45.180Z,19.15
2018-03-07T02:00:11.448Z,21.37
2018-03-07T02:02:37.727Z,23.40
2018-03-07T02:05:03.991Z,19.08
2018-03-07T02:07:30.320Z,18.77
2018-03-07T02:09:56.613Z,18.17
2018-03-07T02:12:22.862Z,19.90
2018-03-07T02:14:49.128Z,17.90
2018-03-07T02:17:15.424Z,17.15
2018-03-07T02:19:42.416Z,20.30
2018-03-07T02:22:08.688Z,16.05
2018-03-07T02:24:35.707Z,16.75
2018-03-07T02:27:02.022Z,20.73
2018-03-07T02:29:28.340Z,17.83
2018-03-07T02:31:54.614Z,16.35
2018-03-07T02:34:20.961Z,20.58
2018-03-07T02:36:47.199Z,21.10
2018-03-07T02:39:14.225Z,19.30
2018-03-07T02:41:40.463Z,19.62
2018-03-07T02:44:07.480Z,20.67
2018-03-07T02:46:33.740Z,22.90
2018-03-07T02:48:59.972Z,20.15
2018-03-07T02:51:27.008Z,23.27
2018-03-07T02:53:54.627Z,18.40
2018-03-07T02:56:20.894Z,15.90
2018-03-07T02:58:47.190Z,19.05
2018-03-07T03:01:13.473Z,23.12
2018-03-07T03:03:40.495Z,18.08
2018-03-07T03:06:06.765Z,18.02
2018-03-07T03:08:33.063Z,18.73
2018-03-07T03:10:59.323Z,17.73
2018-03-07T03:13:26.361Z,15.57
2018-03-07T03:15:53.389Z,22.40
2018-03-07T03:20:51.057Z,18.35
2018-03-07T03:23:17.317Z,16.10
2018-03-07T03:25:43.568Z,18.15
2018-03-07T03:28:09.853Z,19.10
2018-03-07T03:30:36.082Z,19.15
2018-03-07T03:33:03.251Z,17.98
2018-03-07T03:35:30.292Z,23.50
2018-03-07T03:37:56.609Z,15.02
2018-03-07T03:40:22.888Z,18.70
2018-03-07T03:42:49.873Z,18.10
2018-03-07T03:45:16.148Z,14.90
2018-03-07T03:47:43.521Z,17.55
2018-03-07T03:50:09.777Z,17.75
2018-03-07T03:52:36.088Z,15.82
2018-03-07T03:55:02.396Z,16.52
2018-03-07T03:57:29.427Z,15.10
2018-03-07T03:59:56.407Z,13.65
2018-03-07T04:02:22.705Z,15.48
2018-03-07T04:04:49.707Z,16.62
2018-03-07T04:07:15.959Z,16.10
2018-03-07T04:09:43.039Z,13.93
2018-03-07T04:12:09.329Z,14.50
2018-03-07T04:14:35.680Z,14.27
2018-03-07T04:17:02.744Z,18.87
2018-03-07T04:19:29.786Z,17.77
2018-03-07T04:21:56.807Z,15.95
2018-03-07T04:24:23.126Z,17.10
2018-03-07T04:26:49.391Z,19.95
2018-03-07T04:29:15.679Z,13.45
2018-03-07T04:31:43.254Z,16.00
2018-03-07T04:34:09.574Z,17.65
2018-03-07T04:36:35.890Z,16.87
2018-03-07T04:39:03.767Z,20.45
2018-03-07T04:41:30.101Z,18.73
2018-03-07T04:43:56.372Z,14.80
2018-03-07T04:46:22.629Z,19.40
2018-03-07T04:48:48.904Z,19.02
2018-03-07T04:51:16.112Z,19.05
2018-03-07T04:53:42.407Z,19.27
2018-03-07T04:56:08.702Z,24.60
2018-03-07T04:58:34.960Z,19.92
2018-03-07T05:01:01.313Z,18.42
2018-03-07T05:03:27.587Z,21.52
2018-03-07T05:05:53.870Z,21.48
2018-03-07T05:08:20.912Z,20.20
2018-03-07T05:10:47.935Z,21.23
2018-03-07T05:13:14.251Z,20.65
2018-03-07T05:15:40.540Z,20.73
2018-03-07T05:18:06.840Z,20.20
2018-03-07T05:20:33.105Z,17.02
2018-03-07T05:22:59.378Z,16.65
2018-03-07T05:25:25.648Z,18.45
2018-03-07T05:27:52.680Z,15.82
2018-03-07T05:30:18.963Z,19.67
2018-03-07T05:32:45.243Z,16.23
2018-03-07T05:35:12.294Z,17.75
2018-03-07T05:37:39.331Z,16.92
2018-03-07T05:40:05.667Z,18.30
2018-03-07T05:42:32.656Z,21.00
2018-03-07T05:44:58.915Z,20.73
2018-03-07T05:47:25.167Z,17.80
2018-03-07T05:49:51.437Z,22.33
2018-03-07T05:52:17.752Z,20.75
2018-03-07T05:54:44.019Z,25.77
2018-03-07T05:57:10.304Z,20.33
2018-03-07T05:59:37.315Z,20.15
2018-03-07T06:02:03.611Z,27.40
2018-03-07T06:04:29.994Z,22.73
2018-03-07T06:06:57.058Z,22.75
2018-03-07T06:09:24.079Z,26.58
2018-03-07T06:11:50.361Z,20.80
2018-03-07T06:14:16.655Z,25.48
2018-03-07T06:16:42.921Z,27.10
2018-03-07T06:19:09.211Z,26.15
2018-03-07T06:21:36.212Z,26.60
2018-03-07T06:24:02.532Z,23.67
2018-03-07T06:26:28.862Z,25.65
2018-03-07T06:28:55.144Z,24.67
2018-03-07T06:31:21.451Z,25.45
2018-03-07T06:33:47.712Z,24.17
2018-03-07T06:36:14.037Z,22.13
2018-03-07T06:38:40.314Z,25.50
2018-03-07T06:41:06.626Z,21.45
2018-03-07T06:43:32.945Z,22.05
2018-03-07T06:45:59.959Z,24.00
2018-03-07T06:48:26.288Z,24.25
2018-03-07T06:50:52.552Z,23.15
2018-03-07T06:53:19.620Z,20.15
2018-03-07T06:55:45.899Z,22.92
2018-03-07T06:58:12.150Z,21.00
2018-03-07T07:00:38.409Z,20.55
2018-03-07T07:03:04.760Z,19.85
2018-03-07T07:05:31.043Z,19.10
2018-03-07T07:07:57.326Z,21.02
2018-03-07T07:10:23.572Z,25.23
2018-03-07T07:12:49.889Z,23.25
2018-03-07T07:15:16.191Z,21.10
2018-03-07T07:17:42.634Z,22.48
2018-03-07T07:20:08.879Z,21.15
2018-03-07T07:22:35.248Z,20.48
2018-03-07T07:25:01.614Z,20.75
2018-03-07T07:27:27.927Z,17.98
2018-03-07T07:29:54.983Z,22.40
2018-03-07T07:32:22.001Z,24.17
2018-03-07T07:34:48.392Z,22.35
2018-03-07T07:37:14.719Z,18.30
2018-03-07T07:39:41.009Z,19.20
2018-03-07T07:42:07.339Z,21.83
2018-03-07T07:44:34.348Z,21.05
2018-03-07T07:47:00.668Z,21.85
2018-03-07T07:49:27.050Z,19.37
2018-03-07T07:51:54.201Z,18.20
2018-03-07T07:54:21.220Z,19.30
2018-03-07T07:56:47.527Z,16.30
2018-03-07T07:59:13.884Z,20.83
2018-03-07T08:01:40.151Z,18.48
2018-03-07T08:04:07.156Z,20.65
2018-03-07T08:06:33.408Z,19.52
2018-03-07T08:08:59.636Z,20.70
2018-03-07T08:11:25.925Z,22.33
2018-03-07T08:13:52.200Z,20.95
2018-03-07T08:16:19.273Z,19.15
2018-03-07T08:18:45.568Z,21.52
2018-03-07T08:21:11.835Z,21.45
2018-03-07T08:23:38.844Z,28.92
2018-03-07T08:26:05.083Z,20.70
2018-03-07T08:28:31.360Z,23.87
2018-03-07T08:30:57.618Z,19.02
2018-03-07T08:33:23.912Z,21.30
2018-03-07T08:35:50.199Z,21.60
2018-03-07T08:38:16.488Z,19.35
2018-03-07T08:40:42.793Z,23.67
2018-03-07T08:43:09.040Z,25.60
2018-03-07T08:45:35.335Z,26.48
2018-03-07T08:48:02.380Z,22.23
2018-03-07T08:50:29.448Z,21.67
2018-03-07T08:52:56.467Z,20.90
2018-03-07T08:55:22.780Z,26.75
2018-03-07T08:57:49.036Z,22.77
2018-03-07T09:00:16.039Z,21.73
2018-03-07T09:02:43.092Z,28.98
2018-03-07T09:05:09.347Z,23.58
2018-03-07T09:07:35.627Z,35.10
2018-03-07T09:10:01.907Z,23.12
2018-03-07T09:12:28.174Z,27.05
2018-03-07T09:14:54.433Z,22.20
2018-03-07T09:17:20.683Z,28.83
2018-03-07T09:19:46.988Z,25.40
2018-03-07T09:22:13.980Z,25.90
2018-03-07T09:24:41.032Z,26.30
2018-03-07T09:27:07.253Z,26.17
2018-03-07T09:29:33.520Z,24.05
2018-03-07T09:31:59.811Z,28.77
2018-03-07T09:34:26.056Z,23.38
2018-03-07T09:36:53.091Z,25.30
2018-03-07T09:39:20.123Z,30.25
2018-03-07T09:41:47.207Z,24.65
2018-03-07T09:44:14.192Z,26.85
2018-03-07T09:46:40.521Z,28.98
2018-03-07T09:49:06.848Z,23.90
2018-03-07T09:51:33.156Z,22.58
2018-03-07T09:53:59.456Z,21.83
2018-03-07T09:56:25.840Z,26.20
2018-03-07T09:58:52.137Z,24.20
2018-03-07T10:01:18.459Z,28.02
2018-03-07T10:03:45.506Z,26.35
2018-03-07T10:06:12.608Z,25.62
2018-03-07T10:08:38.897Z,29.60
2018-03-07T10:11:05.965Z,24.02
2018-03-07T10:13:32.276Z,29.00
2018-03-07T10:15:58.635Z,27.90
2018-03-07T10:18:24.933Z,30.05
2018-03-07T10:20:52.010Z,28.27
2018-03-07T10:23:18.311Z,31.05
2018-03-07T10:25:45.292Z,30.33
2018-03-07T10:28:11.580Z,33.28
2018-03-07T10:30:38.576Z,28.87
2018-03-07T10:33:11.002Z,32.28
2018-03-07T10:35:38.010Z,32.28
2018-03-07T10:38:04.648Z,25.30
2018-03-07T10:40:30.940Z,31.50
2018-03-07T10:42:57.200Z,26.80
2018-03-07T10:45:23.532Z,24.80
2018-03-07T10:47:49.835Z,25.83
2018-03-07T10:50:16.125Z,30.65
2018-03-07T10:52:42.393Z,24.63
2018-03-07T10:55:08.663Z,29.48
2018-03-07T10:57:34.919Z,22.50
2018-03-07T11:00:01.170Z,27.02
2018-03-07T11:02:28.185Z,28.50
2018-03-07T11:04:54.459Z,23.90
2018-03-07T11:07:20.727Z,30.73
2018-03-07T11:09:47.000Z,26.90
2018-03-07T11:12:13.996Z,28.92
2018-03-07T11:14:40.365Z,31.90
2018-03-07T11:17:06.732Z,33.22
2018-03-07T11:19:33.043Z,30.65
2018-03-07T11:22:00.028Z,31.73
2018-03-07T11:24:26.388Z,29.17
2018-03-07T11:26:52.667Z,28.40
2018-03-07T11:29:18.917Z,28.17
2018-03-07T11:31:45.206Z,35.38
2018-03-07T11:34:12.218Z,25.77
2018-03-07T11:36:38.487Z,30.17
2018-03-07T11:39:05.496Z,30.58
2018-03-07T11:41:31.760Z,25.17
2018-03-07T11:43:58.034Z,22.85
2018-03-07T11:46:24.304Z,21.35
2018-03-07T11:48:51.324Z,25.02
2018-03-07T11:51:17.587Z,25.25
2018-03-07T11:53:44.618Z,18.90
2018-03-07T11:56:10.936Z,23.77
2018-03-07T11:58:37.212Z,16.70
2018-03-07T12:01:04.217Z,23.40
2018-03-07T12:03:30.572Z,20.50
2018-03-07T12:05:57.591Z,18.08
2018-03-07T12:08:23.840Z,14.32
2018-03-07T12:10:50.890Z,11.27
2018-03-07T12:13:17.896Z,10.70
2018-03-07T12:15:44.206Z,12.13
2018-03-07T12:18:10.469Z,8.25
2018-03-07T12:20:36.723Z,7.57
2018-03-07T12:23:03.788Z,6.82
2018-03-07T12:25:30.080Z,5.10
2018-03-07T12:27:56.343Z,6.40
2018-03-07T12:30:23.356Z,4.18
2018-03-07T12:32:49.626Z,3.90
2018-03-07T12:35:15.879Z,2.92
2018-03-07T12:37:42.104Z,4.37
2018-03-07T12:40:08.412Z,4.20
2018-03-07T12:42:34.700Z,5.07
2018-03-07T12:45:01.022Z,4.95
2018-03-07T12:47:27.300Z,4.68
2018-03-07T12:49:53.592Z,5.60
2018-03-07T12:52:19.852Z,5.35
2018-03-07T12:54:46.840Z,5.85
2018-03-07T12:57:13.126Z,5.05
2018-03-07T12:59:40.135Z,4.40
2018-03-07T13:02:06.394Z,4.10
2018-03-07T13:04:32.636Z,4.68
2018-03-07T13:06:59.648Z,9.48
2018-03-07T13:09:25.919Z,5.00
2018-03-07T13:11:52.964Z,4.95
2018-03-07T13:14:19.968Z,8.40
2018-03-07T13:16:46.217Z,5.57
2018-03-07T13:19:12.547Z,4.12
2018-03-07T13:21:38.828Z,5.82
2018-03-07T13:24:05.092Z,4.30
2018-03-07T13:26:31.328Z,4.10
2018-03-07T13:28:57.705Z,5.20
2018-03-07T13:31:24.699Z,6.05
2018-03-07T13:33:50.964Z,5.00
2018-03-07T13:36:17.187Z,4.75
2018-03-07T13:38:44.204Z,5.15
2018-03-07T13:41:10.487Z,4.95
2018-03-07T13:43:36.753Z,5.05
2018-03-07T13:46:03.113Z,4.70
2018-03-07T13:48:30.146Z,4.28
2018-03-07T13:50:56.432Z,4.00
2018-03-07T13:53:22.699Z,4.28
2018-03-07T13:55:48.979Z,6.97
2018-03-07T13:58:15.975Z,7.90
2018-03-07T14:00:42.242Z,5.93
2018-03-07T14:03:09.294Z,9.98
2018-03-07T14:05:36.298Z,6.40
2018-03-07T14:08:02.574Z,6.10
2018-03-07T14:10:29.572Z,7.20
2018-03-07T14:12:55.824Z,4.82
2018-03-07T14:15:22.084Z,8.95
2018-03-07T14:17:49.094Z,5.87
2018-03-07T14:20:15.343Z,7.32
2018-03-07T14:22:41.604Z,6.72
2018-03-07T14:25:07.883Z,5.37
2018-03-07T14:27:34.156Z,4.40
2018-03-07T14:30:00.474Z,7.00
2018-03-07T14:32:26.692Z,5.07
2018-03-07T14:34:53.768Z,6.10
2018-03-07T14:37:20.106Z,6.10
2018-03-07T14:39:47.148Z,6.45
2018-03-07T14:42:13.413Z,6.68
2018-03-07T14:44:39.675Z,5.30
2018-03-07T14:47:06.701Z,5.95
2018-03-07T14:49:33.005Z,7.57
2018-03-07T14:52:00.013Z,12.37
2018-03-07T14:54:27.028Z,9.40
2018-03-07T14:56:53.325Z,2.53
2018-03-07T14:59:19.574Z,3.05
2018-03-07T15:01:45.863Z,8.07
2018-03-07T15:04:12.108Z,3.65
2018-03-07T15:06:38.351Z,4.72
2018-03-07T15:09:04.648Z,3.22
2018-03-07T15:11:30.900Z,3.17
2018-03-07T15:13:57.170Z,2.95
2018-03-07T15:16:23.428Z,2.87
2018-03-07T15:18:50.688Z,6.15
2018-03-07T15:21:17.720Z,7.20
2018-03-07T15:23:44.730Z,2.10
2018-03-07T15:26:11.011Z,5.53
2018-03-07T15:28:37.260Z,4.03
2018-03-07T15:31:03.537Z,2.15
2018-03-07T15:33:29.784Z,3.47
2018-03-07T15:35:56.806Z,2.45
2018-03-07T15:38:23.060Z,2.45
2018-03-07T15:40:49.332Z,3.28
2018-03-07T15:43:15.596Z,1.70
2018-03-07T15:45:41.840Z,2.22
2018-03-07T15:48:08.847Z,2.70
2018-03-07T15:50:35.091Z,5.65
2018-03-07T15:53:01.404Z,2.00
2018-03-07T15:55:27.651Z,1.60
2018-03-07T15:57:53.914Z,3.72
2018-03-07T16:00:20.211Z,1.98
2018-03-07T16:02:46.464Z,3.58
2018-03-07T16:05:12.715Z,1.83
2018-03-07T16:07:39.715Z,1.83
2018-03-07T16:10:05.978Z,2.15
2018-03-07T16:12:32.991Z,2.30
2018-03-07T16:14:59.247Z,3.37
2018-03-07T16:17:25.527Z,5.20
2018-03-07T16:19:51.817Z,2.90
2018-03-07T16:22:18.113Z,2.70
2018-03-07T16:24:44.408Z,2.90
2018-03-07T16:27:10.751Z,3.65
2018-03-07T16:29:37.745Z,4.00
2018-03-07T16:32:03.983Z,4.03
2018-03-07T16:34:30.995Z,4.75
2018-03-07T16:36:57.275Z,3.25
2018-03-07T16:39:24.300Z,3.53
2018-03-07T16:41:50.535Z,4.62
2018-03-07T16:44:17.568Z,4.72
2018-03-07T16:46:43.817Z,2.87
2018-03-07T16:49:10.832Z,3.50
2018-03-07T16:51:37.075Z,2.50
2018-03-07T16:54:03.375Z,2.87
2018-03-07T16:56:29.693Z,3.12
2018-03-07T16:58:56.645Z,4.07
2018-03-07T17:01:22.909Z,2.90
2018-03-07T17:03:49.163Z,4.20
2018-03-07T17:06:16.147Z,4.68
2018-03-07T17:08:42.403Z,6.40
2018-03-07T17:11:08.689Z,5.25
2018-03-07T17:13:35.023Z,4.97
2018-03-07T17:16:01.279Z,3.65
2018-03-07T17:18:27.512Z,4.57
2018-03-07T17:20:53.812Z,5.12
2018-03-07T17:23:20.087Z,3.65
2018-03-07T17:25:46.418Z,4.37
2018-03-07T17:28:12.955Z,2.28
2018-03-07T17:30:39.205Z,2.25
2018-03-07T17:33:05.468Z,2.30
2018-03-07T17:35:31.842Z,2.03
2018-03-07T17:37:58.130Z,1.98
2018-03-07T17:40:24.401Z,2.08
2018-03-07T17:42:50.758Z,2.17
2018-03-07T17:45:17.776Z,1.80
2018-03-07T17:47:44.056Z,2.40
2018-03-07T17:50:10.366Z,2.55
2018-03-07T17:52:36.673Z,2.50
2018-03-07T17:55:02.940Z,3.50
2018-03-07T17:57:29.945Z,3.83
2018-03-07T17:59:56.213Z,2.22
2018-03-07T18:02:22.480Z,2.75
2018-03-07T18:04:48.773Z,3.25
2018-03-07T18:07:15.767Z,3.45
2018-03-07T18:09:42.006Z,5.90
2018-03-07T18:12:08.288Z,6.10
2018-03-07T18:14:34.616Z,13.48
2018-03-07T18:17:01.632Z,6.15
2018-03-07T18:19:27.931Z,5.80
2018-03-07T18:21:54.181Z,14.43
2018-03-07T18:24:20.444Z,4.15
2018-03-07T18:26:47.515Z,3.50
2018-03-07T18:29:13.840Z,6.03
2018-03-07T18:31:40.167Z,3.55
2018-03-07T18:34:06.458Z,3.40
2018-03-07T18:36:32.731Z,3.90
2018-03-07T18:38:59.053Z,5.12
2018-03-07T18:41:25.327Z,5.03
2018-03-07T18:43:51.575Z,3.95
2018-03-07T18:46:17.831Z,3.20
2018-03-07T18:48:44.826Z,3.03
2018-03-07T18:51:11.091Z,10.68
2018-03-07T18:53:38.103Z,5.60
2018-03-07T18:56:04.407Z,5.47
2018-03-07T18:58:30.658Z,6.12
2018-03-07T19:00:56.935Z,5.87
2018-03-07T19:03:23.947Z,5.53
2018-03-07T19:05:51.052Z,5.70
2018-03-07T19:08:17.315Z,6.03
2018-03-07T19:10:43.626Z,8.40
2018-03-07T19:13:09.904Z,7.37
2018-03-07T19:15:36.139Z,4.47
2018-03-07T19:18:02.424Z,3.28
2018-03-07T19:20:28.671Z,4.12
2018-03-07T19:22:55.012Z,4.18
2018-03-07T19:25:21.264Z,9.15
2018-03-07T19:27:48.279Z,2.90
2018-03-07T19:30:14.570Z,5.72
2018-03-07T19:32:40.833Z,6.10
2018-03-07T19:35:07.095Z,6.45
2018-03-07T19:37:33.343Z,5.18
2018-03-07T19:40:00.380Z,6.82
2018-03-07T19:42:27.396Z,6.57
2018-03-07T19:44:53.646Z,6.30
2018-03-07T19:47:20.673Z,5.85
2018-03-07T19:49:46.954Z,8.13
2018-03-07T19:52:13.283Z,8.60
2018-03-07T19:54:39.540Z,7.37
2018-03-07T19:57:05.818Z,7.30
2018-03-07T19:59:32.843Z,10.50
2018-03-07T20:01:59.104Z,11.65
2018-03-07T20:04:26.107Z,10.63
2018-03-07T20:06:52.409Z,10.05
2018-03-07T20:09:18.680Z,9.38
2018-03-07T20:11:44.923Z,13.07
2018-03-07T20:14:11.183Z,10.68
2018-03-07T20:16:37.488Z,12.13
2018-03-07T20:19:03.735Z,16.70
2018-03-07T20:21:30.033Z,15.85
2018-03-07T20:23:56.288Z,19.92
2018-03-07T20:26:23.287Z,17.58
2018-03-07T20:28:49.571Z,18.62
2018-03-07T20:31:16.568Z,21.50
2018-03-07T20:33:42.842Z,14.85
2018-03-07T20:36:09.848Z,18.62
2018-03-07T20:38:36.179Z,17.42
2018-03-07T20:41:02.431Z,16.52
2018-03-07T20:43:28.696Z,21.33
2018-03-07T20:45:54.970Z,25.33
2018-03-07T20:48:21.275Z,23.48
2018-03-07T20:50:47.624Z,22.67
2018-03-07T20:53:13.919Z,19.87
2018-03-07T20:55:40.152Z,18.95
2018-03-07T20:58:06.440Z,19.20
2018-03-07T21:00:33.713Z,13.62
2018-03-07T21:03:00.699Z,15.88
2018-03-07T21:05:26.990Z,14.60
2018-03-07T21:07:53.992Z,11.25
2018-03-07T21:10:20.260Z,14.27
2018-03-07T21:12:47.250Z,11.23
2018-03-07T21:15:13.543Z,10.55
2018-03-07T21:17:39.771Z,10.90
2018-03-07T21:20:06.819Z,10.70
2018-03-07T21:22:33.812Z,7.97
2018-03-07T21:25:00.057Z,10.20
2018-03-07T21:27:26.344Z,7.07
2018-03-07T21:29:52.642Z,9.50
2018-03-07T21:32:19.659Z,8.38
2018-03-07T21:34:45.918Z,11.48
2018-03-07T21:37:12.212Z,9.63
2018-03-07T21:39:38.469Z,11.48
2018-03-07T21:42:04.737Z,13.48
2018-03-07T21:44:31.017Z,12.02
2018-03-07T21:46:57.372Z,12.23
2018-03-07T21:49:23.620Z,9.38
2018-03-07T21:51:49.921Z,14.55
2018-03-07T21:54:16.183Z,10.20
2018-03-07T21:56:42.445Z,13.10
2018-03-07T21:59:08.725Z,16.27
2018-03-07T22:01:34.992Z,13.13
2018-03-07T22:04:01.277Z,16.70
2018-03-07T22:06:27.552Z,14.57
2018-03-07T22:08:53.816Z,14.93
2018-03-07T22:11:20.103Z,20.00
2018-03-07T22:13:46.376Z,20.00
2018-03-07T22:16:12.628Z,28.05
2018-03-07T22:18:38.884Z,22.58
2018-03-07T22:21:05.138Z,22.37
2018-03-07T22:23:31.438Z,29.77
2018-03-07T22:25:57.723Z,21.45
2018-03-07T22:28:24.004Z,26.40
2018-03-07T22:30:50.244Z,24.90
2018-03-07T22:33:16.512Z,27.67
2018-03-07T22:35:42.774Z,30.17
2018-03-07T22:38:09.752Z,28.80
2018-03-07T22:40:36.044Z,37.90
2018-03-07T22:43:03.128Z,29.65
2018-03-07T22:45:29.414Z,35.13
2018-03-07T22:47:55.696Z,31.55
2018-03-07T22:50:21.993Z,37.13
2018-03-07T22:52:48.275Z,29.02
2018-03-07T22:55:14.567Z,34.90
2018-03-07T22:57:40.860Z,31.42
2018-03-07T23:00:13.138Z,39.55
2018-03-07T23:02:40.169Z,29.45
2018-03-07T23:05:06.443Z,32.47
2018-03-07T23:07:32.796Z,30.55
2018-03-07T23:09:59.051Z,32.45
2018-03-07T23:12:25.318Z,34.15
2018-03-07T23:14:52.316Z,37.20
2018-03-07T23:17:18.681Z,33.75
2018-03-07T23:19:45.668Z,35.78
2018-03-07T23:22:11.914Z,36.13
2018-03-07T23:24:38.209Z,37.65
2018-03-07T23:27:05.234Z,42.55
2018-03-07T23:29:32.271Z,37.58
2018-03-07T23:31:58.676Z,35.08
2018-03-07T23:34:24.939Z,32.15
2018-03-07T23:36:51.170Z,35.25
2018-03-07T23:39:17.413Z,36.25
2018-03-07T23:41:44.446Z,28.20
2018-03-07T23:44:10.683Z,30.25
2018-03-07T23:46:36.916Z,28.80
2018-03-07T23:49:03.887Z,32.05
2018-03-07T23:51:30.164Z,28.20
2018-03-07T23:53:56.443Z,32.70
2018-03-07T23:56:22.694Z,31.73
2018-03-07T23:58:48.979Z,28.08
